Time;durP1;ratioP1;P1;durP2;ratioP2;P2;SDS_P1;SDS_P2;PMS_P1;PMS_P2;Temp;Humidity;BMP_temperature;BMP_pressure;BME280_temperature;BME280_humidity;BME280_pressure;Samples;Min_cycle;Max_cycle;Signal;HPM_P1;HPM_P2
2022/03/04 00:01:30;;;;;;;;;;;;;;;9.70;100.00;99022.75;5064896;28;19924;-75
2022/03/04 00:03:58;;;;;;;;;;;;;;;9.83;100.00;99026.59;5062133;28;19928;-74
2022/03/04 00:06:39;;;;;;;;;;;;;;;9.54;100.00;99025.38;5059094;28;19925;-76
2022/03/04 00:09:07;;;;;;;;;;;;;;;9.33;100.00;99022.84;5080127;28;19935;-76
2022/03/04 00:11:34;;;;;;;;;;;;;;;9.43;100.00;99027.50;5076310;28;19928;-76
2022/03/04 00:14:01;;;;;;;;;;;;;;;9.42;100.00;99028.72;5105407;27;19932;-76
2022/03/04 00:16:28;;;;;;;;;;;;;;;9.28;100.00;99035.25;5074872;28;20024;-76
2022/03/04 00:19:09;;;;;;;;;;;;;;;9.29;100.00;99027.66;5079326;28;19925;-76
2022/03/04 00:21:37;;;;;;;;;;;;;;;9.44;100.00;99035.44;5077408;28;19924;-76
2022/03/04 00:24:05;;;;;;;;;;;;;;;9.05;100.00;99037.88;5094306;28;19963;-75
2022/03/04 00:26:34;;;;;;;;;;;;;;;9.19;100.00;99037.72;5096484;28;19931;-75
2022/03/04 00:29:02;;;;;;;;;;;;;;;9.08;100.00;99049.00;5065003;28;20322;-75
2022/03/04 00:31:29;;;;;;;;;;;;;;;9.08;100.00;99043.41;5075490;28;19939;-75
2022/03/04 00:33:56;;;;;;;;;;;;;;;9.28;100.00;99042.81;5084168;28;19924;-76
2022/03/04 00:36:23;;;;;;;;;;;;;;;9.12;100.00;99049.75;5067258;28;20407;-75
2022/03/04 00:38:51;;;;;;;;;;;;;;;9.26;100.00;99043.22;5072598;28;20007;-75
2022/03/04 00:41:19;;;;;;;;;;;;;;;9.22;100.00;99041.69;5057368;28;20421;-75
2022/03/04 00:43:46;;;;;;;;;;;;;;;8.90;100.00;99042.81;5070069;28;19950;-75
2022/03/04 00:46:14;;;;;;;;;;;;;;;8.97;100.00;99048.31;5084762;28;21338;-75
2022/03/04 00:48:41;;;;;;;;;;;;;;;8.97;100.00;99042.72;5072444;28;20439;-76
2022/03/04 00:51:09;;;;;;;;;;;;;;;8.98;100.00;99049.88;5067654;28;19924;-75
2022/03/04 00:53:36;;;;;;;;;;;;;;;9.01;100.00;99054.63;5068394;28;20368;-75
2022/03/04 00:56:06;;;;;;;;;;;;;;;8.93;100.00;99049.53;5082709;28;19931;-75
2022/03/04 00:58:33;;;;;;;;;;;;;;;8.70;100.00;99055.72;5055130;28;19979;-75
2022/03/04 01:01:02;;;;;;;;;;;;;;;8.75;100.00;99057.28;5068763;28;20577;-75
2022/03/04 01:03:29;;;;;;;;;;;;;;;8.94;100.00;99057.50;5066240;28;20386;-75
2022/03/04 01:05:56;;;;;;;;;;;;;;;9.02;100.00;99050.66;5082025;28;20387;-75
2022/03/04 01:08:23;;;;;;;;;;;;;;;8.97;100.00;99061.44;5061176;28;20015;-75
2022/03/04 01:10:50;;;;;;;;;;;;;;;9.14;100.00;99047.34;5106724;28;19930;-75
2022/03/04 01:13:18;;;;;;;;;;;;;;;8.86;100.00;99053.19;5057648;28;19929;-75
2022/03/04 01:15:45;;;;;;;;;;;;;;;9.16;100.00;99058.84;5040048;28;19998;-76
2022/03/04 01:18:12;;;;;;;;;;;;;;;8.82;100.00;99058.00;5077810;28;20023;-75
2022/03/04 01:20:39;;;;;;;;;;;;;;;9.13;100.00;99054.09;5059407;28;20280;-75
2022/03/04 01:23:06;;;;;;;;;;;;;;;8.92;100.00;99054.31;5072689;28;20023;-75
2022/03/04 01:25:33;;;;;;;;;;;;;;;8.78;100.00;99051.66;5056279;28;19924;-75
2022/03/04 01:28:00;;;;;;;;;;;;;;;8.92;100.00;99050.75;5062576;28;20259;-75
2022/03/04 01:30:27;;;;;;;;;;;;;;;8.95;100.00;99059.06;5056845;28;19928;-75
2022/03/04 01:32:54;;;;;;;;;;;;;;;9.14;100.00;99052.91;5069279;28;19928;-76
2022/03/04 01:35:22;;;;;;;;;;;;;;;9.08;100.00;99057.34;5060784;28;19925;-76
2022/03/04 01:37:49;;;;;;;;;;;;;;;9.13;100.00;99062.47;5059867;28;19924;-75
2022/03/04 01:40:16;;;;;;;;;;;;;;;8.69;100.00;99045.75;5059501;28;19935;-76
2022/03/04 01:42:43;;;;;;;;;;;;;;;8.95;100.00;99050.69;5067919;28;20016;-75
2022/03/04 01:45:10;;;;;;;;;;;;;;;9.07;100.00;99052.97;5051098;28;19925;-75
2022/03/04 01:47:38;;;;;;;;;;;;;;;8.84;100.00;99049.22;5073531;28;19929;-75
2022/03/04 01:50:06;;;;;;;;;;;;;;;8.82;100.00;99052.44;5065023;28;19925;-76
2022/03/04 01:52:33;;;;;;;;;;;;;;;8.88;100.00;99045.22;5055891;28;19931;-76
2022/03/04 01:55:00;;;;;;;;;;;;;;;8.61;100.00;99054.59;5056687;28;19971;-76
2022/03/04 01:57:27;;;;;;;;;;;;;;;8.69;100.00;99051.34;5057819;28;19936;-76
2022/03/04 01:59:54;;;;;;;;;;;;;;;8.61;100.00;99058.19;5060946;28;19932;-76
2022/03/04 02:02:21;;;;;;;;;;;;;;;8.39;100.00;99056.75;5054655;28;19925;-76
2022/03/04 02:04:50;;;;;;;;;;;;;;;8.10;100.00;99060.94;5077631;28;20520;-76
2022/03/04 02:07:17;;;;;;;;;;;;;;;8.40;100.00;99063.94;5064941;28;20410;-76
2022/03/04 02:09:44;;;;;;;;;;;;;;;8.14;100.00;99061.69;5071814;28;19925;-76
2022/03/04 02:12:11;;;;;;;;;;;;;;;7.77;100.00;99053.13;5057556;28;19924;-76
2022/03/04 02:14:38;;;;;;;;;;;;;;;7.76;100.00;99059.91;5074191;28;19928;-76
2022/03/04 02:17:05;;;;;;;;;;;;;;;8.28;100.00;99061.63;5073729;28;19925;-76
2022/03/04 02:19:32;;;;;;;;;;;;;;;8.09;100.00;99058.56;5055093;28;19932;-76
2022/03/04 02:22:00;;;;;;;;;;;;;;;8.03;100.00;99060.94;5061366;28;19925;-76
2022/03/04 02:24:28;;;;;;;;;;;;;;;8.38;100.00;99054.38;5075113;28;19928;-76
2022/03/04 02:26:57;;;;;;;;;;;;;;;8.44;100.00;99058.31;5073529;28;19925;-76
2022/03/04 02:29:24;;;;;;;;;;;;;;;8.58;100.00;99059.00;5054254;28;20014;-76
2022/03/04 02:31:52;;;;;;;;;;;;;;;8.60;100.00;99059.38;5088256;28;19931;-76
2022/03/04 02:34:19;;;;;;;;;;;;;;;8.43;100.00;99062.31;5053666;28;20440;-76
2022/03/04 02:36:47;;;;;;;;;;;;;;;8.44;100.00;99058.31;5070376;28;19924;-76
2022/03/04 02:39:17;;;;;;;;;;;;;;;8.36;100.00;99070.72;5091460;28;19924;-76
2022/03/04 02:41:44;;;;;;;;;;;;;;;8.49;100.00;99067.03;5105508;28;19924;-76
2022/03/04 02:44:12;;;;;;;;;;;;;;;8.07;100.00;99067.31;5053652;28;20459;-76
2022/03/04 02:46:39;;;;;;;;;;;;;;;8.11;100.00;99067.25;5070169;28;19929;-76
2022/03/04 02:49:06;;;;;;;;;;;;;;;8.33;100.00;99069.53;5053442;28;20031;-76
2022/03/04 02:51:34;;;;;;;;;;;;;;;8.21;100.00;99078.34;5070196;28;20371;-76
2022/03/04 02:54:01;;;;;;;;;;;;;;;8.04;100.00;99079.22;5088055;28;19928;-76
2022/03/04 02:56:28;;;;;;;;;;;;;;;8.13;100.00;99076.81;5052976;28;19928;-76
2022/03/04 02:58:55;;;;;;;;;;;;;;;8.32;100.00;99081.06;5054673;28;20018;-76
2022/03/04 03:01:22;;;;;;;;;;;;;;;7.83;100.00;99073.78;5054578;28;19928;-76
2022/03/04 03:03:50;;;;;;;;;;;;;;;7.85;100.00;99081.72;5071251;28;20066;-76
2022/03/04 03:06:18;;;;;;;;;;;;;;;7.51;100.00;99078.72;5071449;28;20368;-76
2022/03/04 03:08:45;;;;;;;;;;;;;;;7.18;100.00;99081.94;5078632;28;19925;-75
2022/03/04 03:11:12;;;;;;;;;;;;;;;7.34;100.00;99082.31;5054322;28;19994;-76
2022/03/04 03:13:39;;;;;;;;;;;;;;;7.31;100.00;99081.13;5078394;28;19934;-75
2022/03/04 03:16:07;;;;;;;;;;;;;;;7.00;100.00;99070.09;5094510;28;19931;-75
2022/03/04 03:18:34;;;;;;;;;;;;;;;6.84;100.00;99076.09;5055874;28;19946;-75
2022/03/04 03:21:01;;;;;;;;;;;;;;;7.05;100.00;99067.72;5054230;28;20027;-75
2022/03/04 03:23:28;;;;;;;;;;;;;;;6.81;100.00;99068.53;5069084;28;20339;-75
2022/03/04 03:25:55;;;;;;;;;;;;;;;6.89;100.00;99075.66;5069409;28;19925;-75
2022/03/04 03:28:22;;;;;;;;;;;;;;;6.65;100.00;99070.16;5056327;28;19978;-75
2022/03/04 03:30:49;;;;;;;;;;;;;;;6.76;100.00;99066.16;5069497;28;19925;-75
2022/03/04 03:33:17;;;;;;;;;;;;;;;6.63;100.00;99069.75;5052868;28;20292;-75
2022/03/04 03:35:45;;;;;;;;;;;;;;;6.50;100.00;99068.53;5094550;28;19924;-75
2022/03/04 03:38:13;;;;;;;;;;;;;;;6.48;100.00;99076.47;5073247;28;19925;-75
2022/03/04 03:40:40;;;;;;;;;;;;;;;6.63;100.00;99072.50;5068790;28;20307;-75
2022/03/04 03:43:20;;;;;;;;;;;;;;;6.84;100.00;99078.06;5054925;28;20031;-75
2022/03/04 03:45:47;;;;;;;;;;;;;;;6.42;100.00;99076.06;5052670;28;19924;-75
2022/03/04 03:48:15;;;;;;;;;;;;;;;6.76;100.00;99082.03;5102773;28;19925;-75
2022/03/04 03:50:41;;;;;;;;;;;;;;;6.61;100.00;99077.66;5073548;28;19970;-75
2022/03/04 03:53:11;;;;;;;;;;;;;;;6.52;100.00;99074.50;5088014;28;20301;-75
2022/03/04 03:55:38;;;;;;;;;;;;;;;6.53;100.00;99074.09;5055621;28;20406;-75
2022/03/04 03:58:05;;;;;;;;;;;;;;;6.44;100.00;99064.56;5070835;28;19978;-75
2022/03/04 04:00:32;;;;;;;;;;;;;;;6.41;100.00;99071.72;5055587;28;20010;-75
2022/03/04 04:02:59;;;;;;;;;;;;;;;6.41;100.00;99079.22;5072547;28;20399;-75
2022/03/04 04:05:26;;;;;;;;;;;;;;;6.20;100.00;99070.88;5072340;28;19925;-75
2022/03/04 04:07:53;;;;;;;;;;;;;;;6.42;100.00;99066.97;5059353;28;19925;-75
2022/03/04 04:10:20;;;;;;;;;;;;;;;6.28;100.00;99070.53;5060419;28;19929;-75
2022/03/04 04:12:50;;;;;;;;;;;;;;;6.41;100.00;99071.72;5073582;28;19928;-75
2022/03/04 04:15:18;;;;;;;;;;;;;;;6.42;100.00;99081.63;5072204;28;19928;-75
2022/03/04 04:17:46;;;;;;;;;;;;;;;6.41;100.00;99087.56;5052057;28;20027;-75
2022/03/04 04:20:13;;;;;;;;;;;;;;;6.65;100.00;99093.13;5068874;28;19925;-75
2022/03/04 04:22:40;;;;;;;;;;;;;;;6.68;100.00;99086.00;5053143;28;19925;-75
2022/03/04 04:25:08;;;;;;;;;;;;;;;6.59;100.00;99074.47;5085656;28;20384;-75
2022/03/04 04:27:35;;;;;;;;;;;;;;;6.54;100.00;99091.56;5064885;28;19925;-75
2022/03/04 04:30:03;;;;;;;;;;;;;;;6.40;100.00;99080.44;5072198;28;19974;-75
2022/03/04 04:32:31;;;;;;;;;;;;;;;6.50;100.00;99090.72;5055450;28;19924;-75
2022/03/04 04:34:58;;;;;;;;;;;;;;;6.45;100.00;99088.38;5072341;28;19925;-75
2022/03/04 04:37:25;;;;;;;;;;;;;;;6.53;100.00;99092.72;5062699;28;19925;-75
2022/03/04 04:39:52;;;;;;;;;;;;;;;6.56;100.00;99097.47;5056107;28;20439;-75
2022/03/04 04:42:20;;;;;;;;;;;;;;;6.60;100.00;99096.31;5073265;28;20015;-75
2022/03/04 04:44:47;;;;;;;;;;;;;;;6.61;100.00;99086.78;5088895;28;19924;-75
2022/03/04 04:47:14;;;;;;;;;;;;;;;6.81;100.00;99089.97;5061859;28;19925;-75
2022/03/04 04:49:42;;;;;;;;;;;;;;;6.66;100.00;99088.38;5051800;28;19928;-76
2022/03/04 04:52:09;;;;;;;;;;;;;;;6.94;100.00;99088.34;5105194;28;19931;-75
2022/03/04 04:54:36;;;;;;;;;;;;;;;7.13;100.00;99097.03;5076752;28;19931;-76
2022/03/04 04:57:03;;;;;;;;;;;;;;;6.89;100.00;99099.88;5076841;28;19925;-76
2022/03/04 04:59:31;;;;;;;;;;;;;;;7.26;100.00;99108.53;5068439;28;20390;-75
2022/03/04 05:01:58;;;;;;;;;;;;;;;7.44;100.00;99094.63;5059163;28;19928;-75
2022/03/04 05:04:25;;;;;;;;;;;;;;;7.74;100.00;99104.00;5058989;28;19924;-76
2022/03/04 05:06:53;;;;;;;;;;;;;;;7.72;100.00;99100.88;5091908;28;19925;-76
2022/03/04 05:09:20;;;;;;;;;;;;;;;7.27;100.00;99102.59;5076507;28;19967;-75
2022/03/04 05:11:48;;;;;;;;;;;;;;;7.39;100.00;99109.72;5081360;28;19924;-76
2022/03/04 05:14:14;;;;;;;;;;;;;;;7.55;100.00;99107.28;5095481;28;20260;-76
2022/03/04 05:16:42;;;;;;;;;;;;;;;7.71;100.00;99115.94;5084446;28;19998;-76
2022/03/04 05:19:09;;;;;;;;;;;;;;;7.91;100.00;99119.84;5055126;28;19925;-76
2022/03/04 05:21:36;;;;;;;;;;;;;;;7.45;100.00;99124.78;5056057;28;19932;-76
2022/03/04 05:24:04;;;;;;;;;;;;;;;7.51;100.00;99134.31;5056203;28;19983;-75
2022/03/04 05:26:32;;;;;;;;;;;;;;;7.75;100.00;99143.75;5054992;28;19925;-75
2022/03/04 05:29:01;;;;;;;;;;;;;;;7.99;100.00;99148.44;5103463;28;19928;-76
2022/03/04 05:31:28;;;;;;;;;;;;;;;7.58;100.00;99142.63;5060920;28;20013;-76
2022/03/04 05:33:55;;;;;;;;;;;;;;;6.80;100.00;99136.38;5054727;28;20392;-76
2022/03/04 05:36:23;;;;;;;;;;;;;;;7.32;100.00;99154.19;5054564;28;19947;-75
2022/03/04 05:38:50;;;;;;;;;;;;;;;7.23;100.00;99151.84;5063072;28;19947;-75
2022/03/04 05:41:18;;;;;;;;;;;;;;;7.44;100.00;99158.56;5063576;28;19925;-75
2022/03/04 05:43:46;;;;;;;;;;;;;;;7.46;100.00;99162.50;5054634;28;19931;-75
2022/03/04 05:46:13;;;;;;;;;;;;;;;7.41;100.00;99162.91;5055895;28;19925;-75
2022/03/04 05:48:40;;;;;;;;;;;;;;;7.76;100.00;99162.03;5087848;28;19998;-76
2022/03/04 05:51:07;;;;;;;;;;;;;;;7.72;100.00;99164.84;5065925;28;19924;-76
2022/03/04 05:53:35;;;;;;;;;;;;;;;7.99;100.00;99176.25;5074525;28;19924;-75
2022/03/04 05:56:05;;;;;;;;;;;;;;;8.06;100.00;99171.44;5075471;28;19924;-76
2022/03/04 05:58:32;;;;;;;;;;;;;;;7.96;100.00;99172.28;5074488;28;19924;-76
2022/03/04 06:01:00;;;;;;;;;;;;;;;7.67;100.00;99165.25;5073829;28;19924;-76
2022/03/04 06:03:28;;;;;;;;;;;;;;;7.47;100.00;99175.22;5075127;28;19947;-76
2022/03/04 06:05:55;;;;;;;;;;;;;;;7.33;100.00;99186.34;5057468;28;19931;-75
2022/03/04 06:08:23;;;;;;;;;;;;;;;7.27;100.00;99179.59;5075334;28;20325;-76
2022/03/04 06:10:50;;;;;;;;;;;;;;;7.12;100.00;99183.59;5074089;28;19924;-76
2022/03/04 06:13:18;;;;;;;;;;;;;;;6.98;100.00;99184.38;5095014;28;20011;-76
2022/03/04 06:15:45;;;;;;;;;;;;;;;7.19;100.00;99184.38;5054155;28;19998;-75
2022/03/04 06:18:12;;;;;;;;;;;;;;;7.45;100.00;99185.97;5069843;28;20019;-76
2022/03/04 06:20:59;;;;;;;;;;;;;;;7.66;100.00;99188.69;5110638;27;19983;-77
2022/03/04 06:23:26;;;;;;;;;;;;;;;7.59;100.00;99185.91;5076939;28;19924;-77
2022/03/04 06:25:55;;;;;;;;;;;;;;;7.77;100.00;99197.78;5111522;28;19946;-77
2022/03/04 06:28:22;;;;;;;;;;;;;;;7.70;100.00;99197.00;5093076;28;20302;-77
2022/03/04 06:30:49;;;;;;;;;;;;;;;7.87;100.00;99199.75;5076322;28;19931;-77
2022/03/04 06:33:36;;;;;;;;;;;;;;;7.75;100.00;99194.63;5075874;28;20451;-77
2022/03/04 06:36:09;;;;;;;;;;;;;;;7.74;100.00;99204.16;5093020;28;19924;-77
2022/03/04 06:38:38;;;;;;;;;;;;;;;7.92;100.00;99206.91;5076212;28;20308;-77
2022/03/04 06:41:05;;;;;;;;;;;;;;;7.89;100.00;99211.25;5098809;28;19924;-76
2022/03/04 06:43:32;;;;;;;;;;;;;;;7.87;100.00;99213.66;5083686;28;20052;-75
2022/03/04 06:46:00;;;;;;;;;;;;;;;8.02;100.00;99226.34;5068092;28;19924;-76
2022/03/04 06:48:27;;;;;;;;;;;;;;;8.05;100.00;99231.09;5106480;28;20279;-76
2022/03/04 06:50:54;;;;;;;;;;;;;;;7.93;100.00;99230.72;5070590;28;19924;-76
2022/03/04 06:53:22;;;;;;;;;;;;;;;7.83;100.00;99226.00;5072625;28;19969;-76
2022/03/04 06:55:49;;;;;;;;;;;;;;;7.75;100.00;99224.41;5089352;28;19999;-75
2022/03/04 06:58:16;;;;;;;;;;;;;;;7.56;100.00;99225.63;5087122;28;20023;-75
2022/03/04 07:00:44;;;;;;;;;;;;;;;7.49;100.00;99231.22;5064495;28;19928;-75
2022/03/04 07:03:29;;;;;;;;;;;;;;;7.78;100.00;99229.19;5067749;28;19931;-75
2022/03/04 07:06:28;;;;;;;;;;;;;;;7.87;100.00;99240.69;5083327;28;19924;-75
2022/03/04 07:08:55;;;;;;;;;;;;;;;7.91;100.00;99236.69;5092379;28;20303;-75
2022/03/04 07:11:24;;;;;;;;;;;;;;;8.00;100.00;99245.41;5092360;28;20390;-76
2022/03/04 07:13:51;;;;;;;;;;;;;;;7.83;100.00;99251.03;5075135;28;19928;-75
2022/03/04 07:16:18;;;;;;;;;;;;;;;7.90;100.00;99249.03;5074800;28;20023;-75
2022/03/04 07:18:45;;;;;;;;;;;;;;;7.71;100.00;99254.25;5091839;28;20011;-76
2022/03/04 07:21:13;;;;;;;;;;;;;;;7.84;100.00;99261.75;5109543;28;20275;-75
2022/03/04 07:23:40;;;;;;;;;;;;;;;7.82;100.00;99268.91;5092179;28;20341;-75
2022/03/04 07:26:09;;;;;;;;;;;;;;;7.61;100.00;99275.28;5104190;28;19932;-75
2022/03/04 07:28:37;;;;;;;;;;;;;;;7.46;100.00;99282.06;5101017;28;20303;-76
2022/03/04 07:31:04;;;;;;;;;;;;;;;6.66;100.00;99288.28;5085353;28;19924;-75
2022/03/04 07:33:33;;;;;;;;;;;;;;;6.71;100.00;99290.69;5078498;28;19955;-75
2022/03/04 07:36:01;;;;;;;;;;;;;;;6.14;100.00;99294.41;5061652;28;20354;-75
2022/03/04 07:38:28;;;;;;;;;;;;;;;6.15;100.00;99296.03;5078255;28;20276;-75
2022/03/04 07:40:58;;;;;;;;;;;;;;;5.83;100.00;99312.44;5078354;28;20517;-75
2022/03/04 07:43:25;;;;;;;;;;;;;;;6.57;100.00;99308.06;5078244;28;20014;-75
2022/03/04 07:45:52;;;;;;;;;;;;;;;6.69;100.00;99306.94;5096070;28;19924;-75
2022/03/04 07:48:20;;;;;;;;;;;;;;;6.83;100.00;99315.31;5096102;28;19924;-75
2022/03/04 07:50:47;;;;;;;;;;;;;;;7.14;100.00;99312.63;5096033;28;19931;-75
2022/03/04 07:53:15;;;;;;;;;;;;;;;7.34;100.00;99313.84;5078264;28;19959;-75
2022/03/04 07:55:42;;;;;;;;;;;;;;;7.54;100.00;99311.47;5095517;28;20259;-75
2022/03/04 07:58:10;;;;;;;;;;;;;;;7.67;100.00;99304.28;5095994;28;20368;-75
2022/03/04 08:00:37;;;;;;;;;;;;;;;7.80;100.00;99302.69;5077365;28;19925;-75
2022/03/04 08:03:07;;;;;;;;;;;;;;;7.61;100.00;99299.53;5060903;28;19931;-75
2022/03/04 08:05:36;;;;;;;;;;;;;;;7.94;100.00;99315.78;5077951;28;20393;-76
2022/03/04 08:08:03;;;;;;;;;;;;;;;7.86;100.00;99309.44;5095784;28;20351;-76
2022/03/04 08:10:31;;;;;;;;;;;;;;;7.50;100.00;99309.88;5095918;28;20287;-76
2022/03/04 08:12:58;;;;;;;;;;;;;;;7.50;100.00;99307.09;5077412;28;19924;-76
2022/03/04 08:15:26;;;;;;;;;;;;;;;7.63;100.00;99311.84;5095466;28;20367;-77
2022/03/04 08:17:53;;;;;;;;;;;;;;;8.10;100.00;99321.72;5095208;28;19924;-76
2022/03/04 08:20:45;;;;;;;;;;;;;;;7.99;100.00;99324.53;5095292;28;20014;-77
2022/03/04 08:23:12;;;;;;;;;;;;;;;8.06;100.00;99321.72;5095840;28;20256;-77
2022/03/04 08:25:39;;;;;;;;;;;;;;;7.69;100.00;99329.72;5057241;28;20018;-78
2022/03/04 08:28:07;;;;;;;;;;;;;;;7.11;100.00;99330.09;5075591;28;19931;-77
2022/03/04 08:30:34;;;;;;;;;;;;;;;7.13;100.00;99329.69;5083490;28;20015;-77
2022/03/04 08:33:01;;;;;;;;;;;;;;;7.12;100.00;99339.19;5095657;28;19928;-76
2022/03/04 08:35:29;;;;;;;;;;;;;;;6.53;100.00;99339.78;5053072;28;19999;-76
2022/03/04 08:37:57;;;;;;;;;;;;;;;6.95;100.00;99342.75;5040497;28;20386;-76
2022/03/04 08:40:24;;;;;;;;;;;;;;;7.46;100.00;99336.88;5073611;28;19931;-78
2022/03/04 08:42:51;;;;;;;;;;;;;;;6.50;100.00;99335.00;5094154;28;19924;-77
2022/03/04 08:45:19;;;;;;;;;;;;;;;6.89;100.00;99330.44;5060406;28;20027;-77
2022/03/04 08:47:46;;;;;;;;;;;;;;;6.81;100.00;99334.34;5095265;28;19924;-76
2022/03/04 08:50:14;;;;;;;;;;;;;;;6.26;100.00;99339.28;5095275;28;19931;-76
2022/03/04 08:52:42;;;;;;;;;;;;;;;6.34;100.00;99342.88;5077019;28;19929;-77
2022/03/04 08:55:14;;;;;;;;;;;;;;;6.89;100.00;99347.09;5094971;28;20374;-77
2022/03/04 08:57:42;;;;;;;;;;;;;;;7.10;100.00;99345.16;5095037;28;19928;-77
2022/03/04 09:00:09;;;;;;;;;;;;;;;7.16;100.00;99345.56;5094715;28;19924;-77
2022/03/04 09:02:36;;;;;;;;;;;;;;;6.90;100.00;99351.44;5060833;28;20276;-77
2022/03/04 09:05:03;;;;;;;;;;;;;;;7.12;100.00;99344.75;5094994;28;19924;-77
2022/03/04 09:07:32;;;;;;;;;;;;;;;7.29;100.00;99338.44;5076932;28;19946;-77
2022/03/04 09:10:05;;;;;;;;;;;;;;;7.74;100.00;99339.66;5095007;28;20005;-77
2022/03/04 09:12:32;;;;;;;;;;;;;;;7.02;100.00;99339.97;5043395;28;20034;-76
2022/03/04 09:15:00;;;;;;;;;;;;;;;7.26;100.00;99342.81;5076260;28;19924;-77
2022/03/04 09:17:28;;;;;;;;;;;;;;;6.54;100.00;99346.94;5046734;28;19982;-76
2022/03/04 09:20:00;;;;;;;;;;;;;;;6.53;100.00;99345.34;5052201;28;20020;-76
2022/03/04 09:22:27;;;;;;;;;;;;;;;7.02;100.00;99346.34;5089251;28;20021;-76
2022/03/04 09:24:55;;;;;;;;;;;;;;;7.10;100.00;99352.72;5039509;28;19931;-76
2022/03/04 09:27:23;;;;;;;;;;;;;;;7.07;100.00;99354.25;5076741;28;19931;-76
2022/03/04 09:29:50;;;;;;;;;;;;;;;6.84;100.00;99344.69;5074718;28;20417;-76
2022/03/04 09:32:19;;;;;;;;;;;;;;;7.08;100.00;99343.97;5059532;28;20011;-76
2022/03/04 09:34:47;;;;;;;;;;;;;;;7.25;100.00;99345.97;5071480;28;20330;-76
2022/03/04 09:37:14;;;;;;;;;;;;;;;7.17;100.00;99347.16;5076220;28;20348;-77
2022/03/04 09:39:42;;;;;;;;;;;;;;;7.54;100.00;99344.81;5075774;28;19934;-76
2022/03/04 09:42:14;;;;;;;;;;;;;;;6.81;100.00;99356.56;5094155;28;19924;-76
2022/03/04 09:44:41;;;;;;;;;;;;;;;6.37;100.00;99339.31;5074853;28;19963;-76
2022/03/04 09:47:10;;;;;;;;;;;;;;;6.20;100.00;99348.34;5073929;28;20010;-76
2022/03/04 09:49:38;;;;;;;;;;;;;;;6.40;100.00;99358.78;5093782;28;19924;-76
2022/03/04 09:52:06;;;;;;;;;;;;;;;6.76;100.00;99359.72;5024554;28;20267;-76
2022/03/04 09:54:34;;;;;;;;;;;;;;;6.93;100.00;99359.00;5039970;28;19924;-76
2022/03/04 09:57:02;;;;;;;;;;;;;;;7.38;100.00;99361.06;5040318;28;19934;-77
2022/03/04 09:59:29;;;;;;;;;;;;;;;7.76;100.00;99351.97;5089806;28;20018;-76
2022/03/04 10:01:58;;;;;;;;;;;;;;;8.08;100.00;99358.31;5070425;28;20275;-76
2022/03/04 10:04:26;;;;;;;;;;;;;;;7.93;100.00;99367.88;5071755;28;19925;-76
2022/03/04 10:06:53;;;;;;;;;;;;;;;7.79;100.00;99365.09;5063855;28;19973;-76
2022/03/04 10:09:34;;;;;;;;;;;;;;;7.57;100.00;99363.50;5063133;28;20061;-76
2022/03/04 10:12:05;;;;;;;;;;;;;;;7.70;100.00;99367.47;5078351;28;20365;-76
2022/03/04 10:14:33;;;;;;;;;;;;;;;8.16;100.00;99373.81;5069556;28;20283;-76
2022/03/04 10:17:02;;;;;;;;;;;;;;;8.38;100.00;99380.94;5052075;28;19924;-76
2022/03/04 10:19:33;;;;;;;;;;;;;;;8.63;100.00;99370.50;5071626;28;19931;-76
2022/03/04 10:22:05;;;;;;;;;;;;;;;7.84;100.00;99375.00;5038471;28;19924;-76
2022/03/04 10:24:37;;;;;;;;;;;;;;;7.63;100.00;99375.81;5070990;28;20017;-77
2022/03/04 10:27:04;;;;;;;;;;;;;;;7.65;100.00;99384.53;5082421;28;19925;-76
2022/03/04 10:29:38;;;;;;;;;;;;;;;7.43;100.00;99396.84;5070215;28;19929;-76
2022/03/04 10:32:26;;;;;;;;;;;;;;;7.18;100.00;99393.19;5031522;28;19928;-76
2022/03/04 10:34:55;;;;;;;;;;;;;;;7.40;100.00;99392.06;5079912;28;19936;-77
2022/03/04 10:37:42;;;;;;;;;;;;;;;7.49;100.00;99398.03;5083009;28;19934;-76
2022/03/04 10:40:12;;;;;;;;;;;;;;;7.17;100.00;99395.19;5077278;28;20017;-76
2022/03/04 10:42:42;;;;;;;;;;;;;;;7.32;100.00;99387.69;5087424;28;19932;-76
2022/03/04 10:45:14;;;;;;;;;;;;;;;7.75;100.00;99399.66;5071253;28;19928;-76
2022/03/04 10:47:44;;;;;;;;;;;;;;;7.51;100.00;99395.66;5047930;28;19928;-76
2022/03/04 10:50:13;;;;;;;;;;;;;;;7.52;100.00;99402.81;5069358;28;20008;-76
2022/03/04 10:52:51;;;;;;;;;;;;;;;7.46;100.00;99398.03;5054057;28;19935;-76
2022/03/04 10:55:36;;;;;;;;;;;;;;;7.61;100.00;99400.44;5077309;28;19932;-76
2022/03/04 10:58:05;;;;;;;;;;;;;;;8.09;100.00;99401.63;5074503;28;20013;-78
2022/03/04 11:00:34;;;;;;;;;;;;;;;7.44;100.00;99400.44;5076450;28;19924;-75
2022/03/04 11:03:02;;;;;;;;;;;;;;;7.77;100.00;99402.84;5070843;28;19924;-76
2022/03/04 11:05:29;;;;;;;;;;;;;;;7.68;100.00;99408.78;5051620;28;19978;-76
2022/03/04 11:07:57;;;;;;;;;;;;;;;7.74;100.00;99398.84;5075103;28;19924;-76
2022/03/04 11:10:25;;;;;;;;;;;;;;;7.86;100.00;99403.25;5091956;28;20043;-76
2022/03/04 11:14:50;;;;;;;;;;;;;;;7.95;100.00;99406.41;5107583;27;20524;-76
2022/03/04 11:17:17;;;;;;;;;;;;;;;7.13;100.00;99396.38;5097791;28;20010;-75
2022/03/04 11:19:45;;;;;;;;;;;;;;;7.33;100.00;99405.94;5093133;28;19924;-75
2022/03/04 11:22:12;;;;;;;;;;;;;;;7.41;100.00;99404.78;5097235;28;19931;-75
2022/03/04 11:24:40;;;;;;;;;;;;;;;7.69;100.00;99407.59;5103260;28;20295;-75
2022/03/04 11:27:09;;;;;;;;;;;;;;;7.81;100.00;99409.19;5107635;28;19993;-75
2022/03/04 11:29:37;;;;;;;;;;;;;;;8.07;100.00;99403.22;5106401;28;19924;-75
2022/03/04 11:32:06;;;;;;;;;;;;;;;7.29;100.00;99408.72;5072463;28;19924;-75
2022/03/04 11:34:34;;;;;;;;;;;;;;;7.46;100.00;99414.72;5107378;28;19931;-75
2022/03/04 11:37:04;;;;;;;;;;;;;;;7.20;100.00;99413.06;5106375;28;19924;-76
2022/03/04 11:39:51;;;;;;;;;;;;;;;7.49;100.00;99413.91;5088617;28;19931;-76
2022/03/04 11:42:18;;;;;;;;;;;;;;;7.53;100.00;99409.94;5106592;28;19924;-76
2022/03/04 11:44:53;;;;;;;;;;;;;;;7.43;100.00;99416.31;5102620;28;19927;-76
2022/03/04 11:47:20;;;;;;;;;;;;;;;7.61;100.00;99406.00;5094614;28;19924;-77
2022/03/04 11:49:47;;;;;;;;;;;;;;;8.06;100.00;99410.78;5102709;28;20001;-75
2022/03/04 11:52:20;;;;;;;;;;;;;;;7.90;100.00;99406.81;5104161;28;19997;-74
2022/03/04 11:54:53;;;;;;;;;;;;;;;7.46;100.00;99404.41;5099293;28;20022;-74
2022/03/04 11:57:20;;;;;;;;;;;;;;;7.29;100.00;99407.94;5060975;28;19924;-74
2022/03/04 11:59:54;;;;;;;;;;;;;;;7.75;100.00;99406.03;5098234;28;19931;-74
2022/03/04 12:02:25;;;;;;;;;;;;;;;7.99;100.00;99396.88;5105092;28;20015;-74
2022/03/04 12:05:11;;;;;;;;;;;;;;;7.94;100.00;99394.50;5086298;28;19934;-75
2022/03/04 12:07:40;;;;;;;;;;;;;;;8.79;100.00;99393.16;5104835;28;20543;-76
2022/03/04 12:10:08;;;;;;;;;;;;;;;8.81;100.00;99395.53;5104081;28;19924;-76
2022/03/04 12:12:36;;;;;;;;;;;;;;;8.48;100.00;99385.69;5105676;28;19924;-76
2022/03/04 12:15:15;;;;;;;;;;;;;;;7.70;100.00;99386.13;5107019;28;20383;-75
2022/03/04 12:18:02;;;;;;;;;;;;;;;7.97;100.00;99393.69;5089263;28;19924;-76
2022/03/04 12:20:29;;;;;;;;;;;;;;;8.32;100.00;99396.47;5105974;28;19924;-77
2022/03/04 12:23:07;;;;;;;;;;;;;;;8.14;100.00;99395.66;5083782;28;20272;-77
2022/03/04 12:25:56;;;;;;;;;;;;;;;8.28;100.00;99389.31;5076783;28;19925;-76
2022/03/04 12:28:23;;;;;;;;;;;;;;;8.11;100.00;99385.34;5069394;28;20391;-77
2022/03/04 12:31:14;;;;;;;;;;;;;;;8.19;100.00;99386.94;5082228;28;19924;-76
2022/03/04 12:33:43;;;;;;;;;;;;;;;7.99;100.00;99394.09;5085369;28;19978;-76
2022/03/04 12:36:12;;;;;;;;;;;;;;;8.22;100.00;99391.72;5054901;28;19925;-75
2022/03/04 12:38:49;;;;;;;;;;;;;;;7.99;100.00;99391.31;5086182;28;19990;-74
2022/03/04 12:41:22;;;;;;;;;;;;;;;8.47;100.00;99386.88;5090513;28;19962;-74
2022/03/04 12:44:10;;;;;;;;;;;;;;;8.39;100.00;99392.88;5083609;28;19929;-75
2022/03/04 12:47:04;;;;;;;;;;;;;;;9.12;100.00;99395.41;5088754;28;19962;-77
2022/03/04 12:50:07;;;;;;;;;;;;;;;9.02;100.00;99393.47;5054306;28;19924;-75
2022/03/04 12:53:23;;;;;;;;;;;;;;;8.94;100.00;99391.91;5089063;28;19928;-74
2022/03/04 12:56:22;;;;;;;;;;;;;;;8.96;100.00;99392.31;5088849;28;20749;-75
2022/03/04 12:59:18;;;;;;;;;;;;;;;9.47;100.00;99388.81;5074691;28;19931;-75
2022/03/04 13:02:22;;;;;;;;;;;;;;;9.18;100.00;99397.78;5086889;28;19986;-74